Saint Angelo, United Kingdom
Current Conditions -  °F | °C
As of 10:30 AM on Monday 26 Jan 2015 (Local Time) from EISG Reporting Station
Broken Clouds Broken Clouds  
Wind Chill: 37°   Ceiling: 5500
Heat Index: 45°   Visibility: 6mi
Dew Point: 39°   Wind: 20mph
Humidity: 81%   Direction: 280°W
Pressure: 30.3"   Gusts: NA
Location:  54.4°N, 7.65°W
Report Text: EISG 261030Z 28017KT 9999 SCT036 BKN055 07/04 Q1026
Loading
Personal Weather Stations






























Interactive Weather Map New forecast layout! Learn more

10-Day Weather Forecast

Advertisements
Track Severe Weather on mobile